createdAt,value
2018-09-27T00:01:29.287Z,3.23
2018-09-27T00:03:57.119Z,4.23
2018-09-27T00:06:24.880Z,4.80
2018-09-27T00:08:52.723Z,4.20
2018-09-27T00:11:20.532Z,4.20
2018-09-27T00:13:48.303Z,3.87
2018-09-27T00:16:16.100Z,3.60
2018-09-27T00:18:43.911Z,3.73
2018-09-27T00:21:11.768Z,4.87
2018-09-27T00:23:39.575Z,4.30
2018-09-27T00:26:07.975Z,4.13
2018-09-27T00:28:36.576Z,4.40
2018-09-27T00:31:04.473Z,4.20
2018-09-27T00:33:32.311Z,3.73
2018-09-27T00:36:00.100Z,4.70
2018-09-27T00:38:27.883Z,4.80
2018-09-27T00:40:55.696Z,4.40
2018-09-27T00:43:23.457Z,4.47
2018-09-27T00:45:51.268Z,4.70
2018-09-27T00:48:19.179Z,3.90
2018-09-27T00:50:47.175Z,5.00
2018-09-27T00:53:15.011Z,4.27
2018-09-27T00:55:42.864Z,4.70
2018-09-27T00:58:10.623Z,4.33
2018-09-27T01:00:38.747Z,4.53
2018-09-27T01:03:06.895Z,5.00
2018-09-27T01:05:35.243Z,4.70
2018-09-27T01:08:03.080Z,5.10
2018-09-27T01:10:30.892Z,4.73
2018-09-27T01:12:58.717Z,4.80
2018-09-27T01:15:26.546Z,4.80
2018-09-27T01:17:54.370Z,4.60
2018-09-27T01:20:26.495Z,4.20
2018-09-27T01:22:54.352Z,4.83
2018-09-27T01:25:22.092Z,4.20
2018-09-27T01:27:49.835Z,4.03
2018-09-27T01:30:17.823Z,4.30
2018-09-27T01:32:45.567Z,3.53
2018-09-27T01:35:13.368Z,3.67
2018-09-27T01:37:41.226Z,4.37
2018-09-27T01:40:09.071Z,3.47
2018-09-27T01:42:40.671Z,2.43
2018-09-27T01:45:08.564Z,4.40
2018-09-27T01:47:36.303Z,4.53
2018-09-27T01:50:04.222Z,3.40
2018-09-27T01:52:31.995Z,4.63
2018-09-27T01:54:59.811Z,4.73
2018-09-27T01:57:27.623Z,3.90
2018-09-27T01:59:55.420Z,4.47
2018-09-27T02:02:23.236Z,4.03
2018-09-27T02:04:51.070Z,4.80
2018-09-27T02:07:18.814Z,4.70
2018-09-27T02:09:46.573Z,5.10
2018-09-27T02:12:14.384Z,4.90
2018-09-27T02:14:42.179Z,4.87
2018-09-27T02:17:09.973Z,4.87
2018-09-27T02:19:37.824Z,4.80
2018-09-27T02:22:05.848Z,5.80
2018-09-27T02:24:33.673Z,5.47
2018-09-27T02:27:01.444Z,5.33
2018-09-27T02:29:29.281Z,5.40
2018-09-27T02:31:57.079Z,5.00
2018-09-27T02:34:24.971Z,4.37
2018-09-27T02:36:52.748Z,5.53
2018-09-27T02:39:20.495Z,5.97
2018-09-27T02:41:48.336Z,5.13
2018-09-27T02:44:16.756Z,6.10
2018-09-27T02:46:44.504Z,4.83
2018-09-27T02:49:12.316Z,4.57
2018-09-27T02:51:40.051Z,4.93
2018-09-27T02:54:07.925Z,5.03
2018-09-27T02:56:35.729Z,5.47
2018-09-27T02:59:03.486Z,5.00
2018-09-27T03:01:31.223Z,5.10
2018-09-27T03:03:59.040Z,7.03
2018-09-27T03:06:26.867Z,5.93
2018-09-27T03:08:54.607Z,5.23
2018-09-27T03:11:22.423Z,5.13
2018-09-27T03:13:50.357Z,5.10
2018-09-27T03:16:18.096Z,4.97
2018-09-27T03:18:45.892Z,5.10
2018-09-27T03:21:13.745Z,5.10
2018-09-27T03:23:41.557Z,4.77
2018-09-27T03:26:09.382Z,4.30
2018-09-27T03:28:37.247Z,5.23
2018-09-27T03:31:05.312Z,4.63
2018-09-27T03:33:33.171Z,4.70
2018-09-27T03:36:00.968Z,4.23
2018-09-27T03:38:28.779Z,5.07
2018-09-27T03:40:56.580Z,4.80
2018-09-27T03:43:24.427Z,3.17
2018-09-27T03:45:52.204Z,4.90
2018-09-27T03:48:20.106Z,4.50
2018-09-27T03:50:47.920Z,4.87
2018-09-27T03:53:15.748Z,3.70
2018-09-27T03:55:43.523Z,4.83
2018-09-27T03:58:11.272Z,4.73
2018-09-27T04:00:39.092Z,5.03
2018-09-27T04:03:06.937Z,4.40
2018-09-27T04:05:34.692Z,4.40
2018-09-27T04:08:02.519Z,4.27
2018-09-27T04:10:30.379Z,4.80
2018-09-27T04:12:58.112Z,5.23
2018-09-27T04:15:28.999Z,5.43
2018-09-27T04:17:56.780Z,4.87
2018-09-27T04:20:24.523Z,5.10
2018-09-27T04:22:52.391Z,5.33
2018-09-27T04:25:20.128Z,4.50
2018-09-27T04:27:47.948Z,4.77
2018-09-27T04:30:15.755Z,5.13
2018-09-27T04:32:43.563Z,5.33
2018-09-27T04:35:11.347Z,5.30
2018-09-27T04:37:39.140Z,5.17
2018-09-27T04:40:07.055Z,5.20
2018-09-27T04:42:34.800Z,3.43
2018-09-27T04:45:02.731Z,6.10
2018-09-27T04:47:30.463Z,5.30
2018-09-27T04:49:58.407Z,8.90
2018-09-27T04:52:26.385Z,11.20
2018-09-27T04:54:54.223Z,12.07
2018-09-27T04:57:25.100Z,9.63
2018-09-27T04:59:53.819Z,9.20
2018-09-27T05:02:21.623Z,9.23
2018-09-27T05:04:49.426Z,7.97
2018-09-27T05:07:17.240Z,5.47
2018-09-27T05:09:45.001Z,5.47
2018-09-27T05:12:12.774Z,6.63
2018-09-27T05:14:40.506Z,10.37
2018-09-27T05:17:08.392Z,11.60
2018-09-27T05:19:36.344Z,15.67
2018-09-27T05:22:04.116Z,12.33
2018-09-27T05:24:31.904Z,12.23
2018-09-27T05:26:59.728Z,15.87
2018-09-27T05:29:27.659Z,14.43
2018-09-27T05:31:55.433Z,8.90
2018-09-27T05:34:23.236Z,9.40
2018-09-27T05:36:51.135Z,8.40
2018-09-27T05:39:18.904Z,8.27
2018-09-27T05:41:47.027Z,6.73
2018-09-27T05:44:14.889Z,6.47
2018-09-27T05:46:42.623Z,5.73
2018-09-27T05:49:10.411Z,5.90
2018-09-27T05:51:38.210Z,5.77
2018-09-27T05:54:05.938Z,5.47
2018-09-27T05:56:33.756Z,5.67
2018-09-27T05:59:01.564Z,6.03
2018-09-27T06:01:33.214Z,6.00
2018-09-27T06:04:01.092Z,6.03
2018-09-27T06:06:28.879Z,5.83
2018-09-27T06:08:56.718Z,5.97
2018-09-27T06:11:24.536Z,5.47
2018-09-27T06:13:52.204Z,4.43
2018-09-27T06:16:19.984Z,5.83
2018-09-27T06:18:47.793Z,5.60
2018-09-27T06:21:15.570Z,5.90
2018-09-27T06:23:43.504Z,5.20
2018-09-27T06:26:11.338Z,6.13
2018-09-27T06:28:39.075Z,6.13
2018-09-27T06:31:07.143Z,5.23
2018-09-27T06:33:34.987Z,5.67
2018-09-27T06:36:03.016Z,5.20
2018-09-27T06:38:30.856Z,6.33
2018-09-27T06:40:58.611Z,5.83
2018-09-27T06:43:26.376Z,6.47
2018-09-27T06:45:54.217Z,6.33
2018-09-27T06:48:22.118Z,6.63
2018-09-27T06:50:49.868Z,6.40
2018-09-27T06:53:17.655Z,6.63
2018-09-27T06:55:45.480Z,5.53
2018-09-27T06:58:13.239Z,10.97
2018-09-27T07:00:41.028Z,8.50
2018-09-27T07:03:08.788Z,7.63
2018-09-27T07:05:36.664Z,6.20
2018-09-27T07:08:04.684Z,5.77
2018-09-27T07:10:32.468Z,6.27
2018-09-27T07:13:00.261Z,5.60
2018-09-27T07:15:27.976Z,6.50
2018-09-27T07:17:55.737Z,5.13
2018-09-27T07:20:23.604Z,6.20
2018-09-27T07:22:51.331Z,6.77
2018-09-27T07:25:19.176Z,6.90
2018-09-27T07:27:46.896Z,7.27
2018-09-27T07:30:14.681Z,6.97
2018-09-27T07:32:42.726Z,6.50
2018-09-27T07:35:10.419Z,6.70
2018-09-27T07:37:38.249Z,9.30
2018-09-27T07:40:06.245Z,7.43
2018-09-27T07:42:34.028Z,5.57
2018-09-27T07:45:01.804Z,6.53
2018-09-27T07:47:29.647Z,10.30
2018-09-27T07:49:57.515Z,9.27
2018-09-27T07:52:25.297Z,7.80
2018-09-27T07:54:53.166Z,7.67
2018-09-27T07:57:20.869Z,7.03
2018-09-27T07:59:48.659Z,5.90
2018-09-27T08:02:16.432Z,7.00
2018-09-27T08:04:44.214Z,6.20
2018-09-27T08:07:11.995Z,6.47
2018-09-27T08:09:39.780Z,6.27
2018-09-27T08:12:07.612Z,6.60
2018-09-27T08:14:35.456Z,7.57
2018-09-27T08:17:03.309Z,7.03
2018-09-27T08:19:31.172Z,7.13
2018-09-27T08:21:58.960Z,6.40
2018-09-27T08:24:26.775Z,7.10
2018-09-27T08:26:54.536Z,7.60
2018-09-27T08:29:22.256Z,6.63
2018-09-27T08:31:50.076Z,7.30
2018-09-27T08:34:17.963Z,7.10
2018-09-27T08:36:45.728Z,6.57
2018-09-27T08:39:13.519Z,7.20
2018-09-27T08:41:41.327Z,6.67
2018-09-27T08:44:10.175Z,6.57
2018-09-27T08:46:38.323Z,7.60
2018-09-27T08:49:06.460Z,6.37
2018-09-27T08:51:34.385Z,7.27
2018-09-27T08:54:02.131Z,7.67
2018-09-27T08:56:33.688Z,7.03
2018-09-27T08:59:01.624Z,6.57
2018-09-27T09:01:29.424Z,7.50
2018-09-27T09:03:57.256Z,7.17
2018-09-27T09:06:25.060Z,7.67
2018-09-27T09:08:52.840Z,8.00
2018-09-27T09:11:20.664Z,7.07
2018-09-27T09:13:48.529Z,7.63
2018-09-27T09:16:16.356Z,7.70
2018-09-27T09:18:44.249Z,7.43
2018-09-27T09:21:12.028Z,7.13
2018-09-27T09:23:39.825Z,7.47
2018-09-27T09:26:07.769Z,7.87
2018-09-27T09:28:35.585Z,7.70
2018-09-27T09:31:03.585Z,6.87
2018-09-27T09:33:31.445Z,7.27
2018-09-27T09:35:59.270Z,7.70
2018-09-27T09:38:27.411Z,6.53
2018-09-27T09:40:55.196Z,6.93
2018-09-27T09:43:23.094Z,6.33
2018-09-27T09:45:50.932Z,6.63
2018-09-27T09:48:18.794Z,6.73
2018-09-27T09:50:46.591Z,7.10
2018-09-27T09:53:14.465Z,6.70
2018-09-27T09:55:42.304Z,7.50
2018-09-27T09:58:10.173Z,6.73
2018-09-27T10:00:42.211Z,6.30
2018-09-27T10:03:10.135Z,6.43
2018-09-27T10:05:37.979Z,6.27
2018-09-27T10:08:05.879Z,5.97
2018-09-27T10:10:33.695Z,5.63
2018-09-27T10:13:01.662Z,6.10
2018-09-27T10:15:29.671Z,5.27
2018-09-27T10:17:57.412Z,6.37
2018-09-27T10:20:25.473Z,5.23
2018-09-27T10:22:57.722Z,5.53
2018-09-27T10:25:25.576Z,5.43
2018-09-27T10:27:53.359Z,5.30
2018-09-27T10:30:21.424Z,5.33
2018-09-27T10:32:49.479Z,5.07
2018-09-27T10:35:17.600Z,5.90
2018-09-27T10:37:45.872Z,5.23
2018-09-27T10:40:13.727Z,5.90
2018-09-27T10:42:41.611Z,5.33
2018-09-27T10:45:09.584Z,5.53
2018-09-27T10:47:37.389Z,5.57
2018-09-27T10:50:05.528Z,5.70
2018-09-27T10:52:33.383Z,5.77
2018-09-27T10:55:01.204Z,5.23
2018-09-27T10:57:29.052Z,5.53
2018-09-27T10:59:56.902Z,5.43
2018-09-27T11:02:24.697Z,5.00
2018-09-27T11:04:52.469Z,5.53
2018-09-27T11:07:20.355Z,5.00
2018-09-27T11:09:48.140Z,4.80
2018-09-27T11:12:15.949Z,5.40
2018-09-27T11:14:43.735Z,5.20
2018-09-27T11:17:11.551Z,5.73
2018-09-27T11:19:39.678Z,6.10
2018-09-27T11:22:07.603Z,5.93
2018-09-27T11:24:35.413Z,6.33
2018-09-27T11:27:03.158Z,5.87
2018-09-27T11:29:36.759Z,6.50
2018-09-27T11:32:10.327Z,6.63
2018-09-27T11:34:38.200Z,5.93
2018-09-27T11:37:06.197Z,6.00
2018-09-27T11:39:34.004Z,6.27
2018-09-27T11:42:01.808Z,6.60
2018-09-27T11:44:29.576Z,6.20
2018-09-27T11:46:57.388Z,5.80
2018-09-27T11:49:25.340Z,6.43
2018-09-27T11:51:53.211Z,5.63
2018-09-27T11:54:22.361Z,5.67
2018-09-27T11:56:50.213Z,5.50
2018-09-27T11:59:18.077Z,5.00
2018-09-27T12:01:45.922Z,4.60
2018-09-27T12:04:13.632Z,5.40
2018-09-27T12:06:41.520Z,4.63
2018-09-27T12:09:11.023Z,4.70
2018-09-27T12:11:42.908Z,4.53
2018-09-27T12:14:11.163Z,4.40
2018-09-27T12:16:39.005Z,4.43
2018-09-27T12:19:06.877Z,4.77
2018-09-27T12:21:34.663Z,4.33
2018-09-27T12:24:02.461Z,5.00
2018-09-27T12:26:30.324Z,4.60
2018-09-27T12:28:58.083Z,4.37
2018-09-27T12:31:25.868Z,4.10
2018-09-27T12:33:53.814Z,4.30
2018-09-27T12:36:22.233Z,4.13
2018-09-27T12:38:51.226Z,4.40
2018-09-27T12:41:19.782Z,4.20
2018-09-27T12:43:56.352Z,4.43
2018-09-27T12:46:35.032Z,4.43
2018-09-27T12:49:03.005Z,5.00
2018-09-27T12:51:31.141Z,4.17
2018-09-27T12:54:00.123Z,4.37
2018-09-27T12:56:28.381Z,3.30
2018-09-27T12:58:56.555Z,3.47
2018-09-27T13:01:24.425Z,3.20
2018-09-27T13:03:52.072Z,3.03
2018-09-27T13:06:19.888Z,2.90
2018-09-27T13:08:47.786Z,3.20
2018-09-27T13:11:15.651Z,3.50
2018-09-27T13:13:43.504Z,3.33
2018-09-27T13:16:11.314Z,2.90
2018-09-27T13:18:39.411Z,3.40
2018-09-27T13:21:07.284Z,2.70
2018-09-27T13:23:35.118Z,3.10
2018-09-27T13:26:02.880Z,3.10
2018-09-27T13:28:30.877Z,3.23
2018-09-27T13:30:58.725Z,3.07
2018-09-27T13:33:26.464Z,2.77
2018-09-27T13:35:54.329Z,2.67
2018-09-27T13:38:22.107Z,2.93
2018-09-27T13:40:49.904Z,2.70
2018-09-27T13:43:17.713Z,2.90
2018-09-27T13:45:45.464Z,2.10
2018-09-27T13:48:13.271Z,1.90
2018-09-27T13:50:41.109Z,2.67
2018-09-27T13:53:08.864Z,2.60
2018-09-27T13:55:36.737Z,2.30
2018-09-27T13:58:04.651Z,1.90
2018-09-27T14:00:32.379Z,2.40
2018-09-27T14:03:00.304Z,2.50
2018-09-27T14:05:28.109Z,2.50
2018-09-27T14:07:55.820Z,2.20
2018-09-27T14:10:23.660Z,2.13
2018-09-27T14:12:51.556Z,2.00
2018-09-27T14:15:19.290Z,2.13
2018-09-27T14:17:47.055Z,1.70
2018-09-27T14:20:14.904Z,1.73
2018-09-27T14:22:42.660Z,1.80
2018-09-27T14:25:10.414Z,1.83
2018-09-27T14:27:38.187Z,1.87
2018-09-27T14:30:06.066Z,1.83
2018-09-27T14:32:33.885Z,1.70
2018-09-27T14:35:01.713Z,1.80
2018-09-27T14:37:29.572Z,2.00
2018-09-27T14:39:57.327Z,1.93
2018-09-27T14:42:25.786Z,2.10
2018-09-27T14:44:53.596Z,1.57
2018-09-27T14:47:22.082Z,2.03
2018-09-27T14:49:49.915Z,2.07
2018-09-27T14:52:17.682Z,1.70
2018-09-27T14:54:45.486Z,1.77
2018-09-27T14:57:13.293Z,1.60
2018-09-27T14:59:41.148Z,1.90
2018-09-27T15:02:08.990Z,2.20
2018-09-27T15:04:36.748Z,1.73
2018-09-27T15:07:04.744Z,1.60
2018-09-27T15:09:32.660Z,1.63
2018-09-27T15:12:00.403Z,1.77
2018-09-27T15:14:28.367Z,2.00
2018-09-27T15:16:56.113Z,2.50
2018-09-27T15:19:24.108Z,1.60
2018-09-27T15:21:51.932Z,2.20
2018-09-27T15:24:19.709Z,2.03
2018-09-27T15:26:47.630Z,2.00
2018-09-27T15:29:15.484Z,2.03
2018-09-27T15:31:43.336Z,2.63
2018-09-27T15:34:11.190Z,2.50
2018-09-27T15:36:39.078Z,2.77
2018-09-27T15:39:07.605Z,2.70
2018-09-27T15:41:35.388Z,2.67
2018-09-27T15:44:03.251Z,2.63
2018-09-27T15:46:31.019Z,2.37
2018-09-27T15:48:58.860Z,2.77
2018-09-27T15:51:26.694Z,3.37
2018-09-27T15:53:58.288Z,2.83
2018-09-27T15:56:26.168Z,3.37
2018-09-27T15:58:54.093Z,3.03
2018-09-27T16:01:21.910Z,3.30
2018-09-27T16:03:49.803Z,3.77
2018-09-27T16:06:17.533Z,3.57
2018-09-27T16:08:45.364Z,3.80
2018-09-27T16:11:13.171Z,3.33
2018-09-27T16:13:41.036Z,4.53
2018-09-27T16:16:08.849Z,4.80
2018-09-27T16:18:36.630Z,4.00
2018-09-27T16:21:04.456Z,4.10
2018-09-27T16:23:32.261Z,3.67
2018-09-27T16:26:00.052Z,4.20
2018-09-27T16:28:27.832Z,4.00
2018-09-27T16:30:55.699Z,4.00
2018-09-27T16:33:23.570Z,2.80
2018-09-27T16:35:51.301Z,3.27
2018-09-27T16:38:19.115Z,4.13
2018-09-27T16:40:46.903Z,3.37
2018-09-27T16:43:14.740Z,3.80
2018-09-27T16:45:42.588Z,4.20
2018-09-27T16:48:10.593Z,3.80
2018-09-27T16:50:38.772Z,4.80
2018-09-27T16:53:07.056Z,4.60
2018-09-27T16:55:34.824Z,3.27
2018-09-27T16:58:02.579Z,3.70
2018-09-27T17:00:30.469Z,3.60
2018-09-27T17:02:58.300Z,3.90
2018-09-27T17:05:26.157Z,2.93
2018-09-27T17:07:53.992Z,3.30
2018-09-27T17:10:21.847Z,3.03
2018-09-27T17:12:49.644Z,3.60
2018-09-27T17:15:17.525Z,2.43
2018-09-27T17:17:48.556Z,3.50
2018-09-27T17:20:16.343Z,2.97
2018-09-27T17:22:44.229Z,3.50
2018-09-27T17:25:12.036Z,2.60
2018-09-27T17:27:39.855Z,3.13
2018-09-27T17:30:08.091Z,3.47
2018-09-27T17:32:35.908Z,3.10
2018-09-27T17:35:03.748Z,2.90
2018-09-27T17:37:31.733Z,2.53
2018-09-27T17:39:59.708Z,2.93
2018-09-27T17:42:27.529Z,2.85
2018-09-27T17:44:55.411Z,2.53
2018-09-27T17:47:23.242Z,2.50
2018-09-27T17:49:51.052Z,2.70
2018-09-27T17:52:18.896Z,3.33
2018-09-27T17:54:47.084Z,3.47
2018-09-27T17:57:19.341Z,4.43
2018-09-27T17:59:47.756Z,4.17
2018-09-27T18:02:15.778Z,3.60
2018-09-27T18:04:43.576Z,5.50
2018-09-27T18:07:11.540Z,7.17
2018-09-27T18:09:39.375Z,5.53
2018-09-27T18:12:07.312Z,4.73
2018-09-27T18:14:35.265Z,4.63
2018-09-27T18:17:03.176Z,4.43
2018-09-27T18:19:31.414Z,4.67
2018-09-27T18:21:59.534Z,4.07
2018-09-27T18:24:27.454Z,4.27
2018-09-27T18:26:55.331Z,4.50
2018-09-27T18:29:23.160Z,4.43
2018-09-27T18:31:50.956Z,4.07
2018-09-27T18:34:18.792Z,4.90
2018-09-27T18:36:46.677Z,5.00
2018-09-27T18:39:14.432Z,4.87
2018-09-27T18:41:42.616Z,6.20
2018-09-27T18:44:11.056Z,6.67
2018-09-27T18:46:38.839Z,7.13
2018-09-27T18:49:07.722Z,6.97
2018-09-27T18:51:35.568Z,6.43
2018-09-27T18:54:03.539Z,7.37
2018-09-27T18:56:40.979Z,6.27
2018-09-27T18:59:09.011Z,5.07
2018-09-27T19:01:37.777Z,5.73
2018-09-27T19:04:05.997Z,5.50
2018-09-27T19:06:34.064Z,5.73
2018-09-27T19:09:03.870Z,5.87
2018-09-27T19:11:31.640Z,5.33
2018-09-27T19:14:00.935Z,5.50
2018-09-27T19:16:31.070Z,4.90
2018-09-27T19:19:02.179Z,3.90
2018-09-27T19:21:30.363Z,4.10
2018-09-27T19:23:58.188Z,3.93
2018-09-27T19:26:30.305Z,4.23
2018-09-27T19:28:58.703Z,3.67
2018-09-27T19:31:28.809Z,4.40
2018-09-27T19:33:58.717Z,4.13
2018-09-27T19:36:27.332Z,4.10
2018-09-27T19:39:00.258Z,4.10
2018-09-27T19:41:34.044Z,4.43
2018-09-27T19:44:09.381Z,4.57
2018-09-27T19:46:38.573Z,4.83
2018-09-27T19:49:07.604Z,5.53
2018-09-27T19:51:35.767Z,4.90
2018-09-27T19:54:05.553Z,5.00
2018-09-27T19:56:33.319Z,5.30
2018-09-27T19:59:01.273Z,4.60
2018-09-27T20:01:29.447Z,4.73
2018-09-27T20:04:05.427Z,5.27
2018-09-27T20:06:39.493Z,6.33
2018-09-27T20:09:13.399Z,6.40
2018-09-27T20:11:47.292Z,6.87
2018-09-27T20:14:23.906Z,5.83
2018-09-27T20:16:51.999Z,5.97
2018-09-27T20:19:19.687Z,5.43
2018-09-27T20:21:47.540Z,5.77
2018-09-27T20:24:15.308Z,5.10
2018-09-27T20:26:43.132Z,5.67
2018-09-27T20:29:10.872Z,5.20
2018-09-27T20:31:38.959Z,5.27
2018-09-27T20:34:06.828Z,5.00
2018-09-27T20:36:34.557Z,5.80
2018-09-27T20:39:02.920Z,6.00
2018-09-27T20:41:30.693Z,5.77
2018-09-27T20:43:58.504Z,5.17
2018-09-27T20:46:26.322Z,5.37
2018-09-27T20:48:54.133Z,4.83
2018-09-27T20:51:21.923Z,5.30
2018-09-27T20:53:49.842Z,5.13
2018-09-27T20:56:17.613Z,5.07
2018-09-27T20:58:45.463Z,5.23
2018-09-27T21:01:13.267Z,5.40
2018-09-27T21:03:41.048Z,5.20
2018-09-27T21:06:08.900Z,5.30
2018-09-27T21:08:36.732Z,6.27
2018-09-27T21:11:04.567Z,7.53
2018-09-27T21:13:32.364Z,5.67
2018-09-27T21:16:00.189Z,6.00
2018-09-27T21:18:27.960Z,5.30
2018-09-27T21:20:55.857Z,5.17
2018-09-27T21:23:23.717Z,5.87
2018-09-27T21:25:51.519Z,5.53
2018-09-27T21:28:19.383Z,5.73
2018-09-27T21:30:47.248Z,5.07
2018-09-27T21:33:15.075Z,3.10
2018-09-27T21:35:42.871Z,5.20
2018-09-27T21:38:10.720Z,5.73
2018-09-27T21:40:38.527Z,6.30
2018-09-27T21:43:06.517Z,6.10
2018-09-27T21:45:34.319Z,5.97
2018-09-27T21:48:02.127Z,6.13
2018-09-27T21:50:30.063Z,5.90
2018-09-27T21:52:57.791Z,5.93
2018-09-27T21:55:25.572Z,6.03
2018-09-27T21:57:53.430Z,6.43
2018-09-27T22:00:21.281Z,6.43
2018-09-27T22:02:48.994Z,5.90
2018-09-27T22:05:16.778Z,6.10
2018-09-27T22:07:44.591Z,5.87
2018-09-27T22:10:12.376Z,6.10
2018-09-27T22:12:40.172Z,6.03
2018-09-27T22:15:08.091Z,5.93
2018-09-27T22:17:35.903Z,5.03
2018-09-27T22:20:03.809Z,6.10
2018-09-27T22:22:31.610Z,6.10
2018-09-27T22:24:59.469Z,6.17
2018-09-27T22:27:27.336Z,6.07
2018-09-27T22:29:55.168Z,5.80
2018-09-27T22:32:22.931Z,6.70
2018-09-27T22:34:50.691Z,5.77
2018-09-27T22:37:18.783Z,6.23
2018-09-27T22:39:46.628Z,6.60
2018-09-27T22:42:14.455Z,6.93
2018-09-27T22:44:42.313Z,7.47
2018-09-27T22:47:10.160Z,6.73
2018-09-27T22:49:38.047Z,6.03
2018-09-27T22:52:05.937Z,6.57
2018-09-27T22:54:33.715Z,7.43
2018-09-27T22:57:01.536Z,7.57
2018-09-27T22:59:29.291Z,9.00
2018-09-27T23:01:57.141Z,8.40
2018-09-27T23:04:25.071Z,9.57
2018-09-27T23:06:52.871Z,8.63
2018-09-27T23:09:20.843Z,7.93
2018-09-27T23:11:48.827Z,9.47
2018-09-27T23:14:16.629Z,9.50
2018-09-27T23:16:44.497Z,8.67
2018-09-27T23:19:12.295Z,8.50
2018-09-27T23:21:40.087Z,9.07
2018-09-27T23:24:07.967Z,8.77
2018-09-27T23:26:35.816Z,9.37
2018-09-27T23:29:04.739Z,9.10
2018-09-27T23:31:32.583Z,9.07
2018-09-27T23:34:00.443Z,9.60
2018-09-27T23:36:28.279Z,9.47
2018-09-27T23:38:56.196Z,8.97
2018-09-27T23:41:24.087Z,8.30
2018-09-27T23:43:51.948Z,8.27
2018-09-27T23:46:19.829Z,8.00
2018-09-27T23:48:47.668Z,8.63
2018-09-27T23:51:15.464Z,9.07
2018-09-27T23:53:43.299Z,8.17
2018-09-27T23:56:11.072Z,9.13
2018-09-27T23:58:38.899Z,8.67
